Terminal Aerodrome Forecast
Issued by NWS

Home | Current Version | Previous Version | Text Only | Print | Product List | Glossary On
Versions: 1 2 3 4 5 6 7 8 9 10 11 12 13 14 15 16
000
FTUS45 KBOI 310025 AAA
TAFMYL
TAF AMD
KMYL 310025Z 3100/3124 34010G15KT P6SM VCSH FEW015 OVC035
      TEMPO 3100/3104 1 1/2SM -SN OVC010
     FM310600 33012KT P6SM VCFG OVC040
     FM311500 33010G15KT P6SM SCT250=

USA.gov is the U.S. government's official web portal to all federal, state and local government web resources and services.